createdAt,value
2018-09-28T00:00:34.252Z,67.96
2018-09-28T00:08:31.378Z,68.17
2018-09-28T00:10:36.146Z,68.26
2018-09-28T00:12:44.652Z,68.42
2018-09-28T00:14:50.094Z,68.74
2018-09-28T00:16:54.870Z,68.80
2018-09-28T00:18:59.723Z,68.84
2018-09-28T00:21:04.512Z,68.85
2018-09-28T00:23:09.408Z,69.28
2018-09-28T00:25:14.213Z,69.44
2018-09-28T00:27:18.970Z,69.50
2018-09-28T00:29:23.957Z,69.79
2018-09-28T00:31:34.967Z,69.98
2018-09-28T00:47:25.536Z,70.96
2018-09-28T00:52:04.039Z,71.47
2018-09-28T00:56:39.415Z,71.41
2018-09-28T00:58:46.223Z,71.37
2018-09-28T01:00:51.327Z,71.50
2018-09-28T01:05:12.508Z,71.42
2018-09-28T01:07:17.292Z,71.76
2018-09-28T01:09:22.068Z,71.83
2018-09-28T01:11:26.911Z,71.95
2018-09-28T01:13:31.886Z,71.88
2018-09-28T01:15:36.734Z,71.96
2018-09-28T01:17:41.533Z,72.05
2018-09-28T01:19:46.248Z,71.68
2018-09-28T01:21:51.076Z,71.78
2018-09-28T01:23:55.975Z,71.59
2018-09-28T01:26:00.887Z,71.82
2018-09-28T01:28:05.790Z,71.85
2018-09-28T01:30:10.860Z,71.91
2018-09-28T01:32:15.620Z,72.00
2018-09-28T01:34:20.452Z,71.90
2018-09-28T01:36:25.438Z,71.79
2018-09-28T01:38:30.151Z,71.77
2018-09-28T01:40:35.011Z,72.06
2018-09-28T01:42:39.876Z,72.08
2018-09-28T01:44:44.681Z,72.06
2018-09-28T01:46:49.744Z,72.27
2018-09-28T01:48:54.563Z,72.10
2018-09-28T01:50:59.279Z,72.18
2018-09-28T01:53:04.063Z,72.47
2018-09-28T01:55:08.943Z,72.51
2018-09-28T01:57:13.813Z,72.63
2018-09-28T01:59:18.674Z,72.64
2018-09-28T02:01:23.406Z,72.56
2018-09-28T02:03:28.263Z,72.47
2018-09-28T02:05:33.029Z,72.56
2018-09-28T02:07:37.918Z,72.47
2018-09-28T02:09:42.593Z,72.39
2018-09-28T02:11:47.359Z,72.44
2018-09-28T02:13:52.155Z,72.68
2018-09-28T02:15:56.962Z,72.71
2018-09-28T02:18:01.736Z,72.70
2018-09-28T02:20:06.664Z,72.63
2018-09-28T02:22:11.448Z,72.47
2018-09-28T02:24:16.380Z,72.43
2018-09-28T02:26:21.294Z,72.71
2018-09-28T02:28:26.071Z,72.81
2018-09-28T02:30:30.827Z,72.89
2018-09-28T02:32:35.574Z,72.84
2018-09-28T02:34:40.315Z,72.92
2018-09-28T02:36:45.126Z,73.02
2018-09-28T02:38:49.822Z,72.91
2018-09-28T02:40:54.598Z,72.85
2018-09-28T02:42:59.344Z,73.04
2018-09-28T02:45:04.145Z,73.12
2018-09-28T02:47:08.981Z,73.06
2018-09-28T02:49:13.792Z,73.04
2018-09-28T02:51:18.629Z,73.08
2018-09-28T02:53:23.382Z,73.08
2018-09-28T02:55:28.058Z,72.96
2018-09-28T02:57:32.807Z,73.02
2018-09-28T02:59:37.607Z,72.82
2018-09-28T03:01:42.457Z,72.93
2018-09-28T03:03:47.323Z,72.96
2018-09-28T03:05:52.110Z,73.06
2018-09-28T03:07:56.952Z,73.11
2018-09-28T03:10:01.747Z,73.25
2018-09-28T03:12:06.590Z,73.03
2018-09-28T03:14:11.493Z,73.18
2018-09-28T03:16:16.204Z,73.28
2018-09-28T03:18:21.051Z,73.20
2018-09-28T03:20:26.322Z,73.16
2018-09-28T03:22:31.130Z,73.15
2018-09-28T03:24:36.182Z,73.34
2018-09-28T03:26:41.083Z,73.46
2018-09-28T03:28:45.850Z,73.52
2018-09-28T03:30:50.819Z,73.57
2018-09-28T03:32:55.879Z,73.54
2018-09-28T03:35:00.562Z,73.69
2018-09-28T03:37:05.424Z,73.35
2018-09-28T03:39:10.099Z,73.50
2018-09-28T03:41:15.012Z,73.50
2018-09-28T03:43:19.927Z,73.60
2018-09-28T03:45:52.915Z,73.59
2018-09-28T03:47:57.785Z,73.54
2018-09-28T03:50:02.662Z,73.48
2018-09-28T03:52:07.475Z,73.69
2018-09-28T03:54:12.233Z,73.62
2018-09-28T03:56:17.014Z,73.68
2018-09-28T03:58:21.829Z,73.54
2018-09-28T04:00:26.583Z,73.57
2018-09-28T04:02:31.276Z,73.59
2018-09-28T04:04:36.039Z,73.31
2018-09-28T04:06:41.073Z,73.50
2018-09-28T04:08:45.805Z,73.52
2018-09-28T04:10:50.505Z,73.55
2018-09-28T04:12:55.191Z,73.57
2018-09-28T04:14:59.883Z,73.39
2018-09-28T04:17:04.735Z,73.35
2018-09-28T04:19:10.327Z,73.41
2018-09-28T04:21:15.078Z,73.18
2018-09-28T04:23:19.805Z,72.85
2018-09-28T04:25:24.605Z,72.79
2018-09-28T04:27:29.311Z,72.75
2018-09-28T04:29:33.958Z,72.80
2018-09-28T04:31:38.669Z,72.75
2018-09-28T04:33:43.734Z,72.83
2018-09-28T04:35:48.624Z,72.79
2018-09-28T04:37:53.494Z,72.73
2018-09-28T04:39:58.926Z,72.58
2018-09-28T04:42:03.692Z,72.58
2018-09-28T04:44:08.468Z,72.65
2018-09-28T04:46:13.223Z,72.60
2018-09-28T04:48:17.994Z,72.63
2018-09-28T04:50:22.781Z,72.68
2018-09-28T04:52:27.556Z,72.74
2018-09-28T04:54:32.364Z,72.54
2018-09-28T04:56:37.222Z,72.52
2018-09-28T04:58:41.901Z,72.48
2018-09-28T05:00:47.064Z,72.49
2018-09-28T05:02:52.177Z,72.34
2018-09-28T05:04:57.532Z,72.38
2018-09-28T05:07:02.612Z,72.24
2018-09-28T05:09:11.519Z,71.91
2018-09-28T05:11:16.656Z,71.83
2018-09-28T05:13:21.398Z,71.87
2018-09-28T05:15:26.338Z,71.40
2018-09-28T05:17:31.289Z,71.41
2018-09-28T05:19:36.175Z,71.09
2018-09-28T05:21:41.440Z,71.17
2018-09-28T05:23:46.402Z,70.91
2018-09-28T05:25:51.058Z,70.67
2018-09-28T05:27:55.767Z,70.86
2018-09-28T05:30:00.850Z,70.47
2018-09-28T05:32:05.751Z,70.21
2018-09-28T05:34:10.639Z,69.95
2018-09-28T05:36:15.675Z,70.03
2018-09-28T05:38:21.223Z,70.00
2018-09-28T05:40:26.291Z,69.88
2018-09-28T05:42:31.317Z,69.74
2018-09-28T05:44:36.240Z,69.79
2018-09-28T05:46:42.542Z,69.49
2018-09-28T05:48:47.456Z,69.18
2018-09-28T05:50:52.678Z,68.90
2018-09-28T05:52:57.588Z,68.97
2018-09-28T05:55:08.027Z,67.98
2018-09-28T05:57:13.144Z,68.17
2018-09-28T05:59:23.211Z,67.33
2018-09-28T06:01:33.558Z,67.33
2018-09-28T06:05:50.725Z,66.71
2018-09-28T06:07:55.786Z,68.01
2018-09-28T06:10:00.693Z,68.40
2018-09-28T06:12:05.664Z,68.77
2018-09-28T06:14:11.011Z,68.99
2018-09-28T06:16:16.054Z,69.63
2018-09-28T06:18:21.163Z,70.00
2018-09-28T06:20:26.469Z,70.19
2018-09-28T06:22:31.819Z,70.49
2018-09-28T06:24:36.926Z,70.63
2018-09-28T06:26:42.111Z,70.90
2018-09-28T06:28:47.276Z,71.20
2018-09-28T06:30:52.477Z,71.46
2018-09-28T06:32:57.651Z,72.12
2018-09-28T06:35:02.498Z,72.17
2018-09-28T06:37:07.410Z,72.60
2018-09-28T06:39:12.256Z,72.99
2018-09-28T06:41:18.323Z,72.39
2018-09-28T06:43:23.314Z,72.86
2018-09-28T06:45:28.473Z,73.79
2018-09-28T06:47:33.848Z,73.86
2018-09-28T06:49:39.022Z,74.09
2018-09-28T06:51:44.008Z,74.14
2018-09-28T06:53:49.024Z,74.55
2018-09-28T06:55:54.941Z,74.80
2018-09-28T06:58:00.327Z,75.28
2018-09-28T07:00:05.669Z,75.41
2018-09-28T07:02:10.723Z,74.84
2018-09-28T07:04:15.901Z,75.11
2018-09-28T07:06:20.951Z,75.45
2018-09-28T07:08:26.101Z,75.43
2018-09-28T07:10:31.190Z,75.65
2018-09-28T07:12:36.507Z,75.51
2018-09-28T07:14:41.630Z,75.59
2018-09-28T07:16:46.820Z,76.07
2018-09-28T07:18:51.945Z,76.14
2018-09-28T07:20:57.119Z,75.82
2018-09-28T07:23:02.007Z,76.60
2018-09-28T07:25:07.360Z,76.41
2018-09-28T07:27:12.264Z,75.60
2018-09-28T07:29:17.224Z,75.59
2018-09-28T07:31:22.597Z,75.70
2018-09-28T07:33:27.698Z,75.90
2018-09-28T07:35:33.509Z,76.05
2018-09-28T07:37:38.862Z,75.98
2018-09-28T07:39:43.878Z,75.96
2018-09-28T07:41:49.124Z,75.57
2018-09-28T07:43:54.475Z,76.16
2018-09-28T07:45:59.595Z,76.26
2018-09-28T07:48:04.893Z,75.87
2018-09-28T07:50:09.832Z,76.08
2018-09-28T07:52:15.061Z,75.89
2018-09-28T07:54:19.858Z,76.18
2018-09-28T07:56:25.193Z,76.49
2018-09-28T07:58:30.316Z,76.79
2018-09-28T08:00:35.270Z,76.43
2018-09-28T08:02:40.349Z,75.99
2018-09-28T08:04:45.632Z,75.91
2018-09-28T08:06:50.721Z,76.53
2018-09-28T08:08:55.732Z,76.48
2018-09-28T08:11:00.561Z,76.23
2018-09-28T08:13:05.801Z,76.30
2018-09-28T08:15:10.836Z,75.93
2018-09-28T08:17:15.961Z,76.33
2018-09-28T08:19:20.883Z,76.53
2018-09-28T08:21:25.989Z,76.24
2018-09-28T08:23:31.099Z,76.18
2018-09-28T08:25:36.396Z,75.88
2018-09-28T08:27:41.468Z,75.33
2018-09-28T08:29:46.578Z,75.04
2018-09-28T08:31:51.465Z,75.59
2018-09-28T08:33:56.407Z,75.71
2018-09-28T08:36:01.491Z,75.69
2018-09-28T08:38:06.743Z,75.52
2018-09-28T08:40:11.503Z,75.37
2018-09-28T08:42:16.486Z,74.96
2018-09-28T08:44:21.751Z,74.30
2018-09-28T08:46:27.122Z,73.91
2018-09-28T08:48:32.440Z,73.90
2018-09-28T08:50:37.857Z,73.34
2018-09-28T08:52:43.178Z,73.07
2018-09-28T08:54:48.549Z,72.96
2018-09-28T08:56:53.576Z,72.62
2018-09-28T08:58:58.716Z,72.62
2018-09-28T09:01:09.228Z,72.86
2018-09-28T09:03:14.225Z,72.24
2018-09-28T09:05:19.466Z,71.18
2018-09-28T09:07:24.914Z,71.16
2018-09-28T09:09:30.068Z,71.07
2018-09-28T09:11:36.364Z,70.40
2018-09-28T09:13:41.549Z,70.27
2018-09-28T09:15:48.170Z,70.29
2018-09-28T09:17:53.369Z,70.03
2018-09-28T09:19:58.787Z,69.63
2018-09-28T09:22:03.920Z,69.25
2018-09-28T09:24:09.055Z,69.51
2018-09-28T09:26:14.813Z,69.58
2018-09-28T09:28:19.893Z,68.95
2018-09-28T09:30:25.665Z,68.17
2018-09-28T09:32:30.593Z,68.46
2018-09-28T09:34:35.677Z,67.93
2018-09-28T09:36:40.978Z,67.88
2018-09-28T09:38:45.751Z,67.49
2018-09-28T09:40:50.616Z,67.57
2018-09-28T09:42:55.783Z,67.22
2018-09-28T09:45:00.994Z,67.35
2018-09-28T09:47:06.308Z,66.88
2018-09-28T09:49:11.327Z,66.20
2018-09-28T09:51:16.470Z,66.01
2018-09-28T09:53:21.290Z,65.94
2018-09-28T09:55:26.214Z,66.27
2018-09-28T09:57:31.377Z,65.89
2018-09-28T09:59:36.605Z,65.44
2018-09-28T10:01:46.651Z,64.77
2018-09-28T10:03:52.314Z,64.59
2018-09-28T10:05:57.421Z,64.20
2018-09-28T10:08:02.416Z,63.43
2018-09-28T10:10:07.877Z,62.57
2018-09-28T10:12:12.839Z,62.59
2018-09-28T10:14:17.702Z,61.92
2018-09-28T10:16:22.992Z,61.58
2018-09-28T10:18:28.042Z,61.03
2018-09-28T10:20:32.928Z,59.96
2018-09-28T10:22:38.249Z,59.35
2018-09-28T10:24:43.477Z,59.49
2018-09-28T10:26:48.226Z,59.55
2018-09-28T10:28:52.998Z,59.03
2018-09-28T10:30:57.898Z,59.35
2018-09-28T10:33:02.874Z,58.95
2018-09-28T10:35:07.955Z,58.64
2018-09-28T10:37:13.013Z,58.61
2018-09-28T10:39:17.932Z,59.03
2018-09-28T10:41:22.903Z,58.96
2018-09-28T10:43:27.832Z,58.36
2018-09-28T10:45:32.873Z,58.40
2018-09-28T10:47:38.606Z,59.12
2018-09-28T10:49:43.644Z,57.80
2018-09-28T10:51:49.395Z,58.62
2018-09-28T10:53:54.310Z,58.72
2018-09-28T10:55:59.972Z,57.38
2018-09-28T10:58:05.298Z,57.98
2018-09-28T11:00:10.523Z,57.96
2018-09-28T11:02:15.599Z,57.92
2018-09-28T11:04:20.440Z,57.22
2018-09-28T11:06:25.646Z,57.06
2018-09-28T11:08:30.844Z,57.34
2018-09-28T11:10:35.885Z,57.70
2018-09-28T11:12:41.061Z,57.62
2018-09-28T11:14:46.174Z,57.42
2018-09-28T11:16:51.125Z,56.89
2018-09-28T11:18:56.067Z,56.85
2018-09-28T11:21:01.208Z,57.48
2018-09-28T11:23:06.156Z,57.42
2018-09-28T11:25:11.430Z,57.57
2018-09-28T11:27:16.658Z,57.56
2018-09-28T11:29:21.980Z,57.07
2018-09-28T11:31:27.097Z,57.37
2018-09-28T11:33:32.345Z,57.72
2018-09-28T11:35:37.558Z,58.21
2018-09-28T11:37:42.711Z,59.76
2018-09-28T11:39:47.893Z,61.48
2018-09-28T11:41:53.058Z,62.96
2018-09-28T11:43:58.115Z,64.03
2018-09-28T11:46:03.565Z,63.90
2018-09-28T11:48:08.741Z,64.11
2018-09-28T11:50:13.829Z,64.35
2018-09-28T11:52:19.034Z,64.22
2018-09-28T11:54:24.067Z,64.44
2018-09-28T11:56:29.315Z,64.08
2018-09-28T11:58:34.518Z,63.48
2018-09-28T12:00:39.371Z,63.73
2018-09-28T12:02:44.440Z,63.58
2018-09-28T12:04:49.571Z,63.06
2018-09-28T12:06:54.971Z,62.35
2018-09-28T12:08:59.999Z,61.40
2018-09-28T12:11:05.272Z,60.35
2018-09-28T12:13:10.441Z,59.36
2018-09-28T12:15:15.554Z,59.29
2018-09-28T12:17:21.140Z,58.76
2018-09-28T12:19:26.622Z,58.30
2018-09-28T12:21:32.033Z,57.89
2018-09-28T12:23:37.655Z,57.10
2018-09-28T12:25:42.441Z,56.40
2018-09-28T12:27:47.273Z,56.96
2018-09-28T12:29:52.186Z,56.98
2018-09-28T12:31:57.393Z,56.67
2018-09-28T12:34:02.499Z,56.25
2018-09-28T12:36:08.943Z,56.34
2018-09-28T12:38:14.183Z,56.44
2018-09-28T12:40:20.081Z,56.47
2018-09-28T12:42:25.497Z,55.97
2018-09-28T12:44:31.346Z,55.58
2018-09-28T12:46:36.243Z,55.10
2018-09-28T12:48:41.358Z,54.81
2018-09-28T12:50:46.650Z,55.35
2018-09-28T12:52:51.491Z,55.70
2018-09-28T12:54:56.603Z,55.09
2018-09-28T12:57:01.767Z,55.78
2018-09-28T12:59:07.209Z,55.27
2018-09-28T13:01:12.505Z,55.23
2018-09-28T13:03:17.485Z,54.57
2018-09-28T13:05:22.401Z,53.49
2018-09-28T13:07:27.631Z,53.42
2018-09-28T13:09:32.813Z,53.46
2018-09-28T13:11:38.124Z,53.76
2018-09-28T13:13:42.870Z,53.99
2018-09-28T13:15:48.345Z,54.11
2018-09-28T13:17:53.599Z,54.28
2018-09-28T13:19:59.101Z,53.42
2018-09-28T13:22:04.411Z,52.05
2018-09-28T13:24:09.690Z,52.40
2018-09-28T13:26:15.234Z,52.52
2018-09-28T13:28:20.327Z,51.73
2018-09-28T13:30:27.294Z,51.86
2018-09-28T13:32:45.012Z,51.49
2018-09-28T13:35:02.180Z,51.42
2018-09-28T13:37:12.890Z,51.07
2018-09-28T13:39:19.621Z,50.72
2018-09-28T13:41:25.108Z,51.03
2018-09-28T13:43:30.161Z,50.62
2018-09-28T13:45:35.300Z,50.26
2018-09-28T13:47:40.160Z,50.53
2018-09-28T13:49:45.447Z,51.04
2018-09-28T13:51:50.594Z,50.04
2018-09-28T13:53:55.650Z,50.50
2018-09-28T13:56:00.743Z,49.96
2018-09-28T13:58:05.930Z,50.77
2018-09-28T14:00:11.372Z,50.06
2018-09-28T14:02:16.335Z,50.55
2018-09-28T14:04:21.699Z,50.01
2018-09-28T14:06:26.574Z,50.23
2018-09-28T14:08:31.639Z,49.81
2018-09-28T14:10:36.797Z,49.49
2018-09-28T14:12:42.149Z,49.22
2018-09-28T14:14:47.717Z,49.04
2018-09-28T14:16:53.094Z,47.93
2018-09-28T14:18:58.740Z,47.12
2018-09-28T14:21:03.867Z,45.52
2018-09-28T14:23:08.971Z,44.86
2018-09-28T14:25:14.038Z,42.98
2018-09-28T14:27:18.841Z,42.68
2018-09-28T14:29:23.658Z,43.17
2018-09-28T14:31:28.445Z,43.57
2018-09-28T14:33:33.509Z,43.13
2018-09-28T14:35:38.719Z,44.19
2018-09-28T14:37:43.686Z,44.26
2018-09-28T14:39:48.836Z,44.09
2018-09-28T14:41:54.237Z,44.16
2018-09-28T14:43:59.400Z,43.72
2018-09-28T14:46:04.522Z,43.50
2018-09-28T14:48:09.618Z,43.44
2018-09-28T14:50:14.721Z,42.96
2018-09-28T14:52:19.790Z,42.47
2018-09-28T14:54:24.976Z,41.93
2018-09-28T14:56:30.114Z,41.23
2018-09-28T14:58:35.354Z,40.81
2018-09-28T15:00:40.729Z,39.83
2018-09-28T15:02:45.857Z,39.84
2018-09-28T15:04:51.297Z,39.84
2018-09-28T15:06:56.788Z,38.89
2018-09-28T15:09:01.931Z,38.48
2018-09-28T15:11:07.061Z,39.01
2018-09-28T15:13:12.323Z,38.74
2018-09-28T15:15:17.502Z,39.01
2018-09-28T15:17:22.966Z,38.88
2018-09-28T15:19:28.098Z,39.52
2018-09-28T15:21:33.228Z,38.98
2018-09-28T15:23:38.202Z,38.58
2018-09-28T15:25:43.314Z,38.77
2018-09-28T15:27:48.141Z,38.66
2018-09-28T15:29:52.969Z,39.02
2018-09-28T15:31:58.133Z,38.56
2018-09-28T15:34:02.940Z,38.22
2018-09-28T15:36:08.268Z,38.44
2018-09-28T15:38:13.553Z,38.80
2018-09-28T15:40:18.320Z,39.03
2018-09-28T15:42:23.204Z,39.57
2018-09-28T15:44:27.942Z,39.25
2018-09-28T15:46:32.935Z,39.64
2018-09-28T15:48:38.417Z,39.68
2018-09-28T15:50:44.300Z,40.17
2018-09-28T15:52:49.380Z,40.23
2018-09-28T15:54:54.445Z,40.10
2018-09-28T15:56:59.295Z,40.45
2018-09-28T15:59:04.225Z,40.83
2018-09-28T16:01:10.256Z,40.84
2018-09-28T16:03:17.063Z,40.97
2018-09-28T16:05:21.891Z,40.61
2018-09-28T16:07:26.649Z,40.24
2018-09-28T16:09:31.524Z,40.82
2018-09-28T16:11:36.392Z,40.65
2018-09-28T16:13:41.474Z,41.13
2018-09-28T16:15:47.867Z,40.08
2018-09-28T16:17:52.988Z,39.74
2018-09-28T16:19:57.763Z,39.82
2018-09-28T16:22:02.514Z,39.74
2018-09-28T16:24:07.669Z,39.90
2018-09-28T16:26:12.817Z,39.32
2018-09-28T16:28:18.277Z,39.24
2018-09-28T16:30:23.398Z,39.47
2018-09-28T16:32:28.562Z,39.81
2018-09-28T16:34:33.617Z,40.44
2018-09-28T16:36:39.202Z,40.69
2018-09-28T16:38:44.297Z,40.54
2018-09-28T16:40:49.268Z,40.96
2018-09-28T16:42:54.429Z,41.27
2018-09-28T16:44:59.295Z,42.04
2018-09-28T16:47:04.147Z,42.08
2018-09-28T16:49:09.285Z,42.24
2018-09-28T16:51:14.342Z,42.44
2018-09-28T16:53:19.437Z,42.53
2018-09-28T16:55:24.467Z,42.85
2018-09-28T16:57:29.580Z,43.40
2018-09-28T16:59:34.309Z,43.05
2018-09-28T17:01:39.370Z,43.54
2018-09-28T17:03:44.197Z,43.64
2018-09-28T17:05:49.015Z,43.83
2018-09-28T17:07:54.866Z,43.71
2018-09-28T17:10:00.507Z,43.88
2018-09-28T17:12:05.750Z,43.98
2018-09-28T17:14:10.811Z,44.13
2018-09-28T17:16:15.759Z,43.92
2018-09-28T17:18:20.619Z,44.67
2018-09-28T17:20:25.979Z,45.01
2018-09-28T17:22:31.323Z,44.82
2018-09-28T17:24:36.052Z,44.94
2018-09-28T17:26:40.910Z,45.33
2018-09-28T17:28:45.784Z,45.52
2018-09-28T17:30:50.932Z,45.36
2018-09-28T17:32:55.981Z,44.82
2018-09-28T17:35:01.084Z,44.92
2018-09-28T17:37:06.283Z,45.40
2018-09-28T17:39:13.938Z,45.14
2018-09-28T17:41:19.827Z,45.23
2018-09-28T17:43:25.412Z,45.11
2018-09-28T17:45:30.459Z,44.78
2018-09-28T17:47:35.213Z,44.84
2018-09-28T17:49:40.117Z,44.99
2018-09-28T17:51:45.161Z,45.53
2018-09-28T17:53:50.500Z,45.47
2018-09-28T17:55:55.664Z,45.61
2018-09-28T17:58:00.598Z,45.14
2018-09-28T18:00:05.891Z,45.08
2018-09-28T18:02:11.264Z,45.42
2018-09-28T18:04:16.243Z,44.95
2018-09-28T18:06:21.348Z,44.91
2018-09-28T18:08:26.296Z,45.43
2018-09-28T18:10:31.610Z,45.36
2018-09-28T18:12:36.797Z,45.55
2018-09-28T18:14:42.887Z,46.04
2018-09-28T18:16:47.936Z,45.95
2018-09-28T18:18:53.381Z,46.19
2018-09-28T18:20:58.589Z,46.19
2018-09-28T18:23:04.014Z,46.53
2018-09-28T18:25:09.307Z,46.89
2018-09-28T18:27:14.584Z,47.48
2018-09-28T18:29:21.439Z,47.44
2018-09-28T18:31:27.029Z,47.59
2018-09-28T18:33:36.698Z,48.17
2018-09-28T18:35:43.792Z,48.26
2018-09-28T18:37:49.605Z,48.41
2018-09-28T18:39:55.377Z,48.87
2018-09-28T18:42:00.704Z,49.01
2018-09-28T18:44:06.160Z,49.34
2018-09-28T18:46:11.168Z,48.75
2018-09-28T18:48:16.457Z,49.19
2018-09-28T18:50:21.559Z,49.10
2018-09-28T18:52:27.108Z,49.06
2018-09-28T18:54:32.658Z,49.18
2018-09-28T18:56:38.105Z,49.20
2018-09-28T18:58:43.537Z,49.01
2018-09-28T19:00:50.503Z,48.99
2018-09-28T19:02:55.752Z,49.42
2018-09-28T19:05:00.949Z,49.49
2018-09-28T19:07:06.679Z,49.54
2018-09-28T19:09:13.110Z,50.04
2018-09-28T19:11:18.639Z,49.91
2018-09-28T19:13:24.502Z,49.92
2018-09-28T19:15:31.481Z,50.17
2018-09-28T19:17:38.040Z,50.31
2018-09-28T19:19:44.921Z,50.77
2018-09-28T19:21:50.703Z,50.62
2018-09-28T19:23:55.892Z,50.86
2018-09-28T19:26:01.903Z,51.34
2018-09-28T19:28:07.729Z,51.23
2018-09-28T19:30:12.828Z,51.53
2018-09-28T19:32:19.807Z,51.08
2018-09-28T19:34:25.163Z,50.99
2018-09-28T19:36:31.812Z,51.10
2018-09-28T19:38:38.651Z,51.12
2018-09-28T19:40:46.195Z,51.27
2018-09-28T19:42:52.888Z,51.25
2018-09-28T19:45:02.430Z,51.22
2018-09-28T19:47:09.255Z,51.94
2018-09-28T19:49:19.007Z,51.93
2018-09-28T19:51:33.674Z,52.03
2018-09-28T19:53:40.955Z,52.11
2018-09-28T19:55:46.883Z,51.99
2018-09-28T19:57:54.972Z,52.17
2018-09-28T20:00:04.428Z,52.35
2018-09-28T20:02:12.370Z,52.40
2018-09-28T20:04:21.417Z,52.53
2018-09-28T20:06:28.220Z,52.86
2018-09-28T20:08:35.804Z,52.60
2018-09-28T20:10:44.963Z,52.79
2018-09-28T20:12:56.344Z,53.05
2018-09-28T20:15:12.136Z,53.25
2018-09-28T20:17:18.272Z,53.47
2018-09-28T20:19:25.607Z,53.68
2018-09-28T20:21:32.694Z,53.63
2018-09-28T20:23:39.678Z,53.66
2018-09-28T20:25:44.991Z,54.00
2018-09-28T20:27:50.507Z,54.02
2018-09-28T20:29:55.635Z,54.13
2018-09-28T20:32:02.973Z,54.52
2018-09-28T20:34:09.208Z,54.89
2018-09-28T20:36:14.185Z,55.02
2018-09-28T20:38:19.510Z,55.14
2018-09-28T20:40:24.766Z,55.12
2018-09-28T20:42:35.350Z,55.27
2018-09-28T20:44:42.547Z,55.37
2018-09-28T20:46:48.698Z,55.41
2018-09-28T20:48:53.972Z,55.91
2018-09-28T20:50:59.577Z,56.06
2018-09-28T20:53:06.938Z,56.35
2018-09-28T20:55:18.628Z,56.16
2018-09-28T20:57:24.212Z,56.25
2018-09-28T20:59:30.907Z,56.57
2018-09-28T21:01:39.600Z,56.89
2018-09-28T21:03:50.237Z,56.92
2018-09-28T21:05:55.720Z,57.12
2018-09-28T21:08:02.461Z,56.97
2018-09-28T21:10:08.655Z,57.08
2018-09-28T21:12:13.887Z,57.40
2018-09-28T21:14:18.902Z,57.37
2018-09-28T21:16:24.369Z,57.61
2018-09-28T21:18:30.105Z,57.88
2018-09-28T21:20:38.816Z,58.16
2018-09-28T21:22:46.333Z,58.30
2018-09-28T21:24:52.792Z,58.47
2018-09-28T21:26:59.766Z,58.43
2018-09-28T21:29:05.702Z,58.81
2018-09-28T21:31:11.509Z,58.75
2018-09-28T21:33:17.065Z,58.97
2018-09-28T21:35:22.044Z,58.80
2018-09-28T21:37:27.073Z,59.04
2018-09-28T21:39:32.027Z,59.43
2018-09-28T21:41:36.919Z,59.48
2018-09-28T21:43:42.317Z,59.89
2018-09-28T21:45:48.175Z,59.78
2018-09-28T21:47:54.324Z,60.21
2018-09-28T21:49:59.212Z,59.72
2018-09-28T21:52:04.357Z,59.93
2018-09-28T21:54:09.437Z,59.87
2018-09-28T21:56:14.946Z,60.40
2018-09-28T21:58:21.592Z,60.56
2018-09-28T22:00:27.001Z,60.73
2018-09-28T22:02:32.698Z,60.80
2018-09-28T22:04:38.937Z,60.90
2018-09-28T22:06:44.271Z,61.36
2018-09-28T22:08:49.217Z,61.55
2018-09-28T22:10:54.076Z,61.54
2018-09-28T22:12:58.898Z,61.64
2018-09-28T22:15:03.894Z,61.73
2018-09-28T22:17:08.714Z,61.92
2018-09-28T22:19:13.815Z,61.70
2018-09-28T22:21:18.812Z,62.13
2018-09-28T22:23:23.594Z,62.20
2018-09-28T22:25:28.554Z,62.10
2018-09-28T22:27:33.405Z,62.51
2018-09-28T22:29:38.285Z,62.68
2018-09-28T22:31:43.178Z,62.93
2018-09-28T22:33:48.145Z,62.91
2018-09-28T22:35:52.962Z,62.80
2018-09-28T22:37:57.916Z,63.07
2018-09-28T22:40:02.807Z,63.64
2018-09-28T22:42:07.143Z,63.31
2018-09-28T22:44:11.865Z,63.77
2018-09-28T22:46:16.713Z,63.41
2018-09-28T22:48:21.471Z,63.29
2018-09-28T22:50:27.662Z,63.24
2018-09-28T22:52:32.531Z,63.51
2018-09-28T22:54:37.281Z,63.67
2018-09-28T22:56:42.119Z,63.96
2018-09-28T22:58:46.887Z,63.76
2018-09-28T23:00:51.870Z,64.01
2018-09-28T23:02:57.206Z,64.28
2018-09-28T23:05:02.942Z,63.91
2018-09-28T23:07:08.189Z,63.77
2018-09-28T23:09:13.190Z,63.99
2018-09-28T23:11:18.405Z,64.26
2018-09-28T23:13:23.501Z,64.52
2018-09-28T23:15:28.224Z,64.35
2018-09-28T23:17:33.079Z,64.37
2018-09-28T23:19:38.120Z,64.26
2018-09-28T23:21:43.312Z,64.27
2018-09-28T23:23:48.368Z,64.45
2018-09-28T23:25:53.440Z,64.59
2018-09-28T23:27:58.595Z,64.42
2018-09-28T23:30:03.719Z,64.39
2018-09-28T23:32:09.346Z,64.53
2018-09-28T23:34:14.399Z,64.17
2018-09-28T23:36:19.376Z,64.35
2018-09-28T23:38:25.064Z,64.28
2018-09-28T23:40:29.879Z,64.19
2018-09-28T23:42:34.925Z,64.25
2018-09-28T23:44:39.949Z,64.48
2018-09-28T23:46:44.960Z,64.60
2018-09-28T23:48:50.105Z,64.63
2018-09-28T23:50:55.013Z,64.58
2018-09-28T23:52:59.969Z,64.52
2018-09-28T23:55:04.977Z,64.75
2018-09-28T23:57:09.964Z,64.61
2018-09-28T23:59:14.887Z,64.40
